sensor_id;sensor_type;location;lat;lon;timestamp;pressure;altitude;pressure_sealevel;temperature;humidity
52441;BME280;39611;46.062;8.950;2022-12-24T00:02:25;96311.16;;;4.52;100.00
52441;BME280;39611;46.062;8.950;2022-12-24T00:04:52;96315.34;;;4.53;100.00
52441;BME280;39611;46.062;8.950;2022-12-24T00:07:25;96303.53;;;4.51;100.00
52441;BME280;39611;46.062;8.950;2022-12-24T00:09:52;96312.56;;;4.43;100.00
52441;BME280;39611;46.062;8.950;2022-12-24T00:12:18;96321.31;;;4.49;100.00
52441;BME280;39611;46.062;8.950;2022-12-24T00:14:45;96303.38;;;4.57;100.00
52441;BME280;39611;46.062;8.950;2022-12-24T00:17:11;96306.88;;;4.63;100.00
52441;BME280;39611;46.062;8.950;2022-12-24T00:19:38;96288.59;;;4.85;100.00
52441;BME280;39611;46.062;8.950;2022-12-24T00:22:04;96310.97;;;4.59;100.00
52441;BME280;39611;46.062;8.950;2022-12-24T00:24:30;96341.19;;;4.33;100.00
52441;BME280;39611;46.062;8.950;2022-12-24T00:26:57;96321.69;;;4.24;100.00
52441;BME280;39611;46.062;8.950;2022-12-24T00:29:23;96318.84;;;4.42;100.00
52441;BME280;39611;46.062;8.950;2022-12-24T00:31:50;96318.50;;;4.22;100.00
52441;BME280;39611;46.062;8.950;2022-12-24T00:34:16;96307.47;;;4.20;100.00
52441;BME280;39611;46.062;8.950;2022-12-24T00:36:43;96305.44;;;4.38;100.00
52441;BME280;39611;46.062;8.950;2022-12-24T00:39:09;96309.16;;;4.26;100.00
52441;BME280;39611;46.062;8.950;2022-12-24T00:41:35;96321.50;;;4.13;100.00
52441;BME280;39611;46.062;8.950;2022-12-24T00:44:04;96329.84;;;4.10;100.00
52441;BME280;39611;46.062;8.950;2022-12-24T00:46:32;96338.16;;;4.07;100.00
52441;BME280;39611;46.062;8.950;2022-12-24T00:48:59;96337.16;;;4.25;100.00
52441;BME280;39611;46.062;8.950;2022-12-24T00:51:26;96337.00;;;4.32;100.00
52441;BME280;39611;46.062;8.950;2022-12-24T00:53:53;96331.03;;;4.20;100.00
52441;BME280;39611;46.062;8.950;2022-12-24T00:56:20;96360.31;;;4.16;100.00
52441;BME280;39611;46.062;8.950;2022-12-24T00:58:47;96386.38;;;4.11;100.00
52441;BME280;39611;46.062;8.950;2022-12-24T01:01:14;96395.81;;;4.12;100.00
52441;BME280;39611;46.062;8.950;2022-12-24T01:03:41;96383.66;;;4.06;100.00
52441;BME280;39611;46.062;8.950;2022-12-24T01:06:16;96372.13;;;4.19;100.00
52441;BME280;39611;46.062;8.950;2022-12-24T01:08:43;96369.78;;;4.06;100.00
52441;BME280;39611;46.062;8.950;2022-12-24T01:11:10;96373.16;;;4.18;100.00
52441;BME280;39611;46.062;8.950;2022-12-24T01:13:37;96367.31;;;4.28;100.00
52441;BME280;39611;46.062;8.950;2022-12-24T01:16:17;96373.72;;;4.20;100.00
52441;BME280;39611;46.062;8.950;2022-12-24T01:18:44;96377.84;;;4.16;100.00
52441;BME280;39611;46.062;8.950;2022-12-24T01:21:11;96386.75;;;4.03;100.00
52441;BME280;39611;46.062;8.950;2022-12-24T01:23:37;96393.56;;;4.04;100.00
52441;BME280;39611;46.062;8.950;2022-12-24T01:26:04;96393.19;;;4.12;100.00
52441;BME280;39611;46.062;8.950;2022-12-24T01:28:32;96400.63;;;4.15;100.00
52441;BME280;39611;46.062;8.950;2022-12-24T01:30:58;96397.19;;;4.15;100.00
52441;BME280;39611;46.062;8.950;2022-12-24T01:33:28;96404.63;;;4.06;100.00
52441;BME280;39611;46.062;8.950;2022-12-24T01:35:55;96385.00;;;3.92;100.00
52441;BME280;39611;46.062;8.950;2022-12-24T01:38:21;96366.81;;;4.14;100.00
52441;BME280;39611;46.062;8.950;2022-12-24T01:40:48;96354.22;;;3.99;100.00
52441;BME280;39611;46.062;8.950;2022-12-24T01:43:33;96363.22;;;3.91;100.00
52441;BME280;39611;46.062;8.950;2022-12-24T01:48:46;96309.59;;;4.06;100.00
52441;BME280;39611;46.062;8.950;2022-12-24T01:53:44;96352.97;;;4.02;100.00
52441;BME280;39611;46.062;8.950;2022-12-24T01:56:12;96356.72;;;4.06;100.00
52441;BME280;39611;46.062;8.950;2022-12-24T01:58:42;96351.09;;;4.14;100.00
52441;BME280;39611;46.062;8.950;2022-12-24T02:01:10;96308.72;;;4.00;100.00
52441;BME280;39611;46.062;8.950;2022-12-24T02:03:37;96340.59;;;3.97;100.00
52441;BME280;39611;46.062;8.950;2022-12-24T02:06:04;96347.72;;;4.02;100.00
52441;BME280;39611;46.062;8.950;2022-12-24T02:08:32;96350.50;;;3.95;100.00
52441;BME280;39611;46.062;8.950;2022-12-24T02:11:09;96348.59;;;3.79;100.00
52441;BME280;39611;46.062;8.950;2022-12-24T02:13:36;96323.47;;;3.78;100.00
52441;BME280;39611;46.062;8.950;2022-12-24T02:16:06;96360.28;;;3.88;100.00
52441;BME280;39611;46.062;8.950;2022-12-24T02:18:43;96344.56;;;3.71;100.00
52441;BME280;39611;46.062;8.950;2022-12-24T02:21:47;96312.16;;;3.89;100.00
52441;BME280;39611;46.062;8.950;2022-12-24T02:24:38;96341.38;;;3.98;100.00
52441;BME280;39611;46.062;8.950;2022-12-24T02:27:10;96326.50;;;3.86;100.00
52441;BME280;39611;46.062;8.950;2022-12-24T02:32:31;96348.97;;;3.99;100.00
52441;BME280;39611;46.062;8.950;2022-12-24T02:35:12;96355.44;;;4.08;100.00
52441;BME280;39611;46.062;8.950;2022-12-24T02:37:47;96345.56;;;3.99;100.00
52441;BME280;39611;46.062;8.950;2022-12-24T02:40:27;96357.00;;;3.92;100.00
52441;BME280;39611;46.062;8.950;2022-12-24T02:42:57;96351.31;;;3.84;100.00
52441;BME280;39611;46.062;8.950;2022-12-24T02:45:28;96366.28;;;3.71;100.00
52441;BME280;39611;46.062;8.950;2022-12-24T02:47:56;96374.91;;;3.60;100.00
52441;BME280;39611;46.062;8.950;2022-12-24T02:50:23;96373.44;;;3.64;100.00
52441;BME280;39611;46.062;8.950;2022-12-24T02:52:50;96377.31;;;3.74;100.00
52441;BME280;39611;46.062;8.950;2022-12-24T02:55:22;96389.41;;;3.91;100.00
52441;BME280;39611;46.062;8.950;2022-12-24T02:58:08;96381.91;;;3.83;100.00
52441;BME280;39611;46.062;8.950;2022-12-24T03:03:39;96382.19;;;3.70;100.00
52441;BME280;39611;46.062;8.950;2022-12-24T03:06:22;96386.84;;;3.80;100.00
52441;BME280;39611;46.062;8.950;2022-12-24T03:09:01;96375.56;;;3.79;100.00
52441;BME280;39611;46.062;8.950;2022-12-24T03:11:32;96366.50;;;3.70;100.00
52441;BME280;39611;46.062;8.950;2022-12-24T03:14:00;96354.88;;;3.78;100.00
52441;BME280;39611;46.062;8.950;2022-12-24T03:16:27;96356.38;;;3.74;100.00
52441;BME280;39611;46.062;8.950;2022-12-24T03:18:55;96353.56;;;3.63;100.00
52441;BME280;39611;46.062;8.950;2022-12-24T03:21:29;96355.50;;;3.56;100.00
52441;BME280;39611;46.062;8.950;2022-12-24T03:23:57;96362.59;;;3.84;100.00
52441;BME280;39611;46.062;8.950;2022-12-24T03:26:26;96357.47;;;3.78;100.00
52441;BME280;39611;46.062;8.950;2022-12-24T03:28:54;96345.25;;;3.66;100.00
52441;BME280;39611;46.062;8.950;2022-12-24T03:31:21;96345.53;;;3.82;100.00
52441;BME280;39611;46.062;8.950;2022-12-24T03:33:49;96341.78;;;3.78;100.00
52441;BME280;39611;46.062;8.950;2022-12-24T03:36:15;96336.44;;;3.72;100.00
52441;BME280;39611;46.062;8.950;2022-12-24T03:38:42;96328.75;;;3.66;100.00
52441;BME280;39611;46.062;8.950;2022-12-24T03:41:09;96330.22;;;3.74;100.00
52441;BME280;39611;46.062;8.950;2022-12-24T03:43:35;96307.81;;;3.66;100.00
52441;BME280;39611;46.062;8.950;2022-12-24T03:46:06;96314.59;;;3.79;100.00
52441;BME280;39611;46.062;8.950;2022-12-24T03:48:34;96310.97;;;3.80;100.00
52441;BME280;39611;46.062;8.950;2022-12-24T03:51:02;96307.19;;;3.76;100.00
52441;BME280;39611;46.062;8.950;2022-12-24T03:53:28;96299.72;;;3.67;100.00
52441;BME280;39611;46.062;8.950;2022-12-24T03:55:55;96294.88;;;3.47;100.00
52441;BME280;39611;46.062;8.950;2022-12-24T03:58:22;96293.41;;;3.63;100.00
52441;BME280;39611;46.062;8.950;2022-12-24T04:00:48;96294.03;;;3.70;100.00
52441;BME280;39611;46.062;8.950;2022-12-24T04:03:14;96298.81;;;3.74;100.00
52441;BME280;39611;46.062;8.950;2022-12-24T04:05:41;96297.97;;;3.56;100.00
52441;BME280;39611;46.062;8.950;2022-12-24T04:08:08;96291.38;;;3.54;100.00
52441;BME280;39611;46.062;8.950;2022-12-24T04:10:34;96284.50;;;3.64;100.00
52441;BME280;39611;46.062;8.950;2022-12-24T04:13:00;96278.50;;;3.52;100.00
52441;BME280;39611;46.062;8.950;2022-12-24T04:15:27;96288.94;;;3.64;100.00
52441;BME280;39611;46.062;8.950;2022-12-24T04:17:53;96297.09;;;3.39;100.00
52441;BME280;39611;46.062;8.950;2022-12-24T04:20:19;96286.63;;;3.39;100.00
52441;BME280;39611;46.062;8.950;2022-12-24T04:22:46;96305.81;;;3.44;100.00
52441;BME280;39611;46.062;8.950;2022-12-24T04:25:12;96292.84;;;3.49;100.00
52441;BME280;39611;46.062;8.950;2022-12-24T04:27:39;96294.41;;;3.62;100.00
52441;BME280;39611;46.062;8.950;2022-12-24T04:30:06;96310.59;;;3.47;100.00
52441;BME280;39611;46.062;8.950;2022-12-24T04:32:32;96327.09;;;3.48;100.00
52441;BME280;39611;46.062;8.950;2022-12-24T04:34:59;96319.25;;;3.36;100.00
52441;BME280;39611;46.062;8.950;2022-12-24T04:37:25;96316.97;;;3.40;100.00
52441;BME280;39611;46.062;8.950;2022-12-24T04:39:52;96330.91;;;3.57;100.00
52441;BME280;39611;46.062;8.950;2022-12-24T04:42:18;96331.97;;;3.56;100.00
52441;BME280;39611;46.062;8.950;2022-12-24T04:44:44;96342.25;;;3.75;100.00
52441;BME280;39611;46.062;8.950;2022-12-24T04:47:11;96337.34;;;3.78;100.00
52441;BME280;39611;46.062;8.950;2022-12-24T04:49:37;96337.03;;;3.75;100.00
52441;BME280;39611;46.062;8.950;2022-12-24T04:52:04;96341.47;;;3.74;100.00
52441;BME280;39611;46.062;8.950;2022-12-24T04:54:30;96331.41;;;3.83;100.00
52441;BME280;39611;46.062;8.950;2022-12-24T04:56:57;96338.06;;;3.74;100.00
52441;BME280;39611;46.062;8.950;2022-12-24T04:59:24;96339.34;;;3.59;100.00
52441;BME280;39611;46.062;8.950;2022-12-24T05:01:50;96330.66;;;3.70;100.00
52441;BME280;39611;46.062;8.950;2022-12-24T05:04:16;96337.97;;;3.68;100.00
52441;BME280;39611;46.062;8.950;2022-12-24T05:06:43;96345.97;;;3.79;100.00
52441;BME280;39611;46.062;8.950;2022-12-24T05:09:09;96336.56;;;3.78;100.00
52441;BME280;39611;46.062;8.950;2022-12-24T05:11:36;96338.66;;;3.64;100.00
52441;BME280;39611;46.062;8.950;2022-12-24T05:14:02;96333.78;;;3.56;100.00
52441;BME280;39611;46.062;8.950;2022-12-24T05:16:29;96325.69;;;3.57;100.00
52441;BME280;39611;46.062;8.950;2022-12-24T05:18:55;96322.41;;;3.50;100.00
52441;BME280;39611;46.062;8.950;2022-12-24T05:21:23;96327.31;;;3.46;100.00
52441;BME280;39611;46.062;8.950;2022-12-24T05:23:50;96325.47;;;3.47;100.00
52441;BME280;39611;46.062;8.950;2022-12-24T05:26:48;96312.78;;;3.39;100.00
52441;BME280;39611;46.062;8.950;2022-12-24T05:29:15;96314.03;;;3.48;100.00
52441;BME280;39611;46.062;8.950;2022-12-24T05:31:43;96332.66;;;3.40;100.00
52441;BME280;39611;46.062;8.950;2022-12-24T05:34:12;96335.06;;;3.41;100.00
52441;BME280;39611;46.062;8.950;2022-12-24T05:36:39;96339.72;;;3.39;100.00
52441;BME280;39611;46.062;8.950;2022-12-24T05:39:06;96348.00;;;3.48;100.00
52441;BME280;39611;46.062;8.950;2022-12-24T05:41:40;96339.91;;;3.61;100.00
52441;BME280;39611;46.062;8.950;2022-12-24T05:44:07;96348.56;;;3.50;100.00
52441;BME280;39611;46.062;8.950;2022-12-24T05:46:33;96358.81;;;3.40;100.00
52441;BME280;39611;46.062;8.950;2022-12-24T05:49:00;96366.91;;;3.26;100.00
52441;BME280;39611;46.062;8.950;2022-12-24T05:51:26;96352.56;;;3.41;100.00
52441;BME280;39611;46.062;8.950;2022-12-24T05:53:52;96342.78;;;3.48;100.00
52441;BME280;39611;46.062;8.950;2022-12-24T05:56:23;96342.84;;;3.65;100.00
52441;BME280;39611;46.062;8.950;2022-12-24T05:58:50;96340.50;;;3.40;100.00
52441;BME280;39611;46.062;8.950;2022-12-24T06:01:19;96312.19;;;3.48;100.00
52441;BME280;39611;46.062;8.950;2022-12-24T06:03:45;96316.44;;;3.38;100.00
52441;BME280;39611;46.062;8.950;2022-12-24T06:06:17;96321.34;;;3.22;100.00
52441;BME280;39611;46.062;8.950;2022-12-24T06:08:44;96320.06;;;3.37;100.00
52441;BME280;39611;46.062;8.950;2022-12-24T06:11:12;96324.59;;;3.53;100.00
52441;BME280;39611;46.062;8.950;2022-12-24T06:13:40;96324.13;;;3.56;100.00
52441;BME280;39611;46.062;8.950;2022-12-24T06:16:11;96312.72;;;3.62;100.00
52441;BME280;39611;46.062;8.950;2022-12-24T06:18:38;96310.72;;;3.41;100.00
52441;BME280;39611;46.062;8.950;2022-12-24T06:21:05;96335.47;;;3.50;100.00
52441;BME280;39611;46.062;8.950;2022-12-24T06:23:35;96326.66;;;3.27;100.00
52441;BME280;39611;46.062;8.950;2022-12-24T06:26:03;96325.16;;;3.43;100.00
52441;BME280;39611;46.062;8.950;2022-12-24T06:28:31;96340.59;;;3.45;100.00
52441;BME280;39611;46.062;8.950;2022-12-24T06:30:59;96340.09;;;3.19;100.00
52441;BME280;39611;46.062;8.950;2022-12-24T06:33:30;96328.25;;;3.28;100.00
52441;BME280;39611;46.062;8.950;2022-12-24T06:35:57;96343.78;;;3.47;100.00
52441;BME280;39611;46.062;8.950;2022-12-24T06:38:23;96345.53;;;3.30;100.00
52441;BME280;39611;46.062;8.950;2022-12-24T06:40:50;96341.06;;;3.42;100.00
52441;BME280;39611;46.062;8.950;2022-12-24T06:43:16;96342.63;;;3.55;100.00
52441;BME280;39611;46.062;8.950;2022-12-24T06:45:44;96351.41;;;3.48;100.00
52441;BME280;39611;46.062;8.950;2022-12-24T06:48:12;96334.94;;;3.48;100.00
52441;BME280;39611;46.062;8.950;2022-12-24T06:50:40;96341.97;;;3.47;100.00
52441;BME280;39611;46.062;8.950;2022-12-24T06:53:06;96339.81;;;3.44;100.00
52441;BME280;39611;46.062;8.950;2022-12-24T06:55:33;96330.03;;;3.40;100.00
52441;BME280;39611;46.062;8.950;2022-12-24T06:57:59;96326.28;;;3.47;100.00
52441;BME280;39611;46.062;8.950;2022-12-24T07:00:25;96335.28;;;3.40;100.00
52441;BME280;39611;46.062;8.950;2022-12-24T07:02:52;96335.63;;;3.43;100.00
52441;BME280;39611;46.062;8.950;2022-12-24T07:05:18;96336.63;;;3.54;100.00
52441;BME280;39611;46.062;8.950;2022-12-24T07:07:45;96339.72;;;3.39;100.00
52441;BME280;39611;46.062;8.950;2022-12-24T07:10:13;96335.41;;;3.21;100.00
52441;BME280;39611;46.062;8.950;2022-12-24T07:12:41;96356.00;;;3.18;100.00
52441;BME280;39611;46.062;8.950;2022-12-24T07:15:08;96358.28;;;3.14;100.00
52441;BME280;39611;46.062;8.950;2022-12-24T07:17:35;96363.84;;;3.30;100.00
52441;BME280;39611;46.062;8.950;2022-12-24T07:20:02;96376.69;;;3.19;100.00
52441;BME280;39611;46.062;8.950;2022-12-24T07:22:29;96392.69;;;3.11;100.00
52441;BME280;39611;46.062;8.950;2022-12-24T07:24:55;96392.72;;;3.23;100.00
52441;BME280;39611;46.062;8.950;2022-12-24T07:27:21;96409.06;;;3.18;100.00
52441;BME280;39611;46.062;8.950;2022-12-24T07:29:48;96412.72;;;3.17;100.00
52441;BME280;39611;46.062;8.950;2022-12-24T07:32:14;96398.38;;;3.32;100.00
52441;BME280;39611;46.062;8.950;2022-12-24T07:34:41;96395.53;;;3.33;100.00
52441;BME280;39611;46.062;8.950;2022-12-24T07:37:07;96405.78;;;3.23;100.00
52441;BME280;39611;46.062;8.950;2022-12-24T07:39:34;96415.19;;;3.47;100.00
52441;BME280;39611;46.062;8.950;2022-12-24T07:42:00;96433.41;;;3.31;100.00
52441;BME280;39611;46.062;8.950;2022-12-24T07:44:27;96426.13;;;3.21;100.00
52441;BME280;39611;46.062;8.950;2022-12-24T07:46:53;96434.19;;;3.43;100.00
52441;BME280;39611;46.062;8.950;2022-12-24T07:49:19;96450.22;;;3.46;100.00
52441;BME280;39611;46.062;8.950;2022-12-24T07:51:46;96451.69;;;3.31;100.00
52441;BME280;39611;46.062;8.950;2022-12-24T07:54:13;96443.63;;;3.44;100.00
52441;BME280;39611;46.062;8.950;2022-12-24T07:56:41;96448.97;;;3.49;100.00
52441;BME280;39611;46.062;8.950;2022-12-24T07:59:09;96438.41;;;3.32;100.00
52441;BME280;39611;46.062;8.950;2022-12-24T08:01:37;96432.13;;;3.45;100.00
52441;BME280;39611;46.062;8.950;2022-12-24T08:04:04;96446.25;;;3.44;100.00
52441;BME280;39611;46.062;8.950;2022-12-24T08:06:30;96437.38;;;3.45;100.00
52441;BME280;39611;46.062;8.950;2022-12-24T08:08:57;96438.16;;;3.57;100.00
52441;BME280;39611;46.062;8.950;2022-12-24T08:11:23;96428.06;;;3.49;100.00
52441;BME280;39611;46.062;8.950;2022-12-24T08:13:49;96430.19;;;3.64;100.00
52441;BME280;39611;46.062;8.950;2022-12-24T08:16:16;96420.41;;;3.71;100.00
52441;BME280;39611;46.062;8.950;2022-12-24T08:18:42;96433.81;;;3.75;100.00
52441;BME280;39611;46.062;8.950;2022-12-24T08:21:09;96445.75;;;3.70;100.00
52441;BME280;39611;46.062;8.950;2022-12-24T08:23:35;96435.91;;;3.61;100.00
52441;BME280;39611;46.062;8.950;2022-12-24T08:26:05;96438.72;;;3.59;100.00
52441;BME280;39611;46.062;8.950;2022-12-24T08:28:32;96450.44;;;3.57;100.00
52441;BME280;39611;46.062;8.950;2022-12-24T08:30:59;96464.09;;;3.59;100.00
52441;BME280;39611;46.062;8.950;2022-12-24T08:33:25;96456.00;;;3.60;100.00
52441;BME280;39611;46.062;8.950;2022-12-24T08:35:53;96469.41;;;3.76;100.00
52441;BME280;39611;46.062;8.950;2022-12-24T08:38:20;96484.78;;;3.72;100.00
52441;BME280;39611;46.062;8.950;2022-12-24T08:40:47;96490.13;;;3.65;100.00
52441;BME280;39611;46.062;8.950;2022-12-24T08:43:16;96488.53;;;3.76;100.00
52441;BME280;39611;46.062;8.950;2022-12-24T08:45:43;96491.03;;;3.83;100.00
52441;BME280;39611;46.062;8.950;2022-12-24T08:48:10;96484.75;;;3.96;100.00
52441;BME280;39611;46.062;8.950;2022-12-24T08:50:40;96489.53;;;3.99;100.00
52441;BME280;39611;46.062;8.950;2022-12-24T08:53:07;96483.06;;;3.78;100.00
52441;BME280;39611;46.062;8.950;2022-12-24T08:55:34;96453.03;;;3.92;100.00
52441;BME280;39611;46.062;8.950;2022-12-24T08:58:00;96449.00;;;4.01;100.00
52441;BME280;39611;46.062;8.950;2022-12-24T09:00:27;96435.81;;;4.08;100.00
52441;BME280;39611;46.062;8.950;2022-12-24T09:02:55;96435.72;;;3.91;100.00
52441;BME280;39611;46.062;8.950;2022-12-24T09:05:21;96438.34;;;3.91;100.00
52441;BME280;39611;46.062;8.950;2022-12-24T09:07:48;96429.00;;;3.95;100.00
52441;BME280;39611;46.062;8.950;2022-12-24T09:10:14;96419.31;;;3.96;100.00
52441;BME280;39611;46.062;8.950;2022-12-24T09:12:42;96423.72;;;4.07;100.00
52441;BME280;39611;46.062;8.950;2022-12-24T09:15:09;96441.56;;;4.22;100.00
52441;BME280;39611;46.062;8.950;2022-12-24T09:17:35;96440.56;;;4.11;100.00
52441;BME280;39611;46.062;8.950;2022-12-24T09:20:03;96449.19;;;4.23;100.00
52441;BME280;39611;46.062;8.950;2022-12-24T09:22:29;96459.50;;;4.30;100.00
52441;BME280;39611;46.062;8.950;2022-12-24T09:24:56;96459.13;;;4.38;100.00
52441;BME280;39611;46.062;8.950;2022-12-24T09:27:22;96468.59;;;4.39;100.00
52441;BME280;39611;46.062;8.950;2022-12-24T09:29:49;96480.66;;;4.40;100.00
52441;BME280;39611;46.062;8.950;2022-12-24T09:32:15;96483.88;;;4.30;100.00
52441;BME280;39611;46.062;8.950;2022-12-24T09:34:42;96509.69;;;4.50;100.00
52441;BME280;39611;46.062;8.950;2022-12-24T09:37:08;96516.59;;;4.56;100.00
52441;BME280;39611;46.062;8.950;2022-12-24T09:39:34;96515.97;;;4.78;100.00
52441;BME280;39611;46.062;8.950;2022-12-24T09:48:02;96517.34;;;4.97;100.00
52441;BME280;39611;46.062;8.950;2022-12-24T09:53:03;96528.00;;;5.08;100.00
52441;BME280;39611;46.062;8.950;2022-12-24T09:55:58;96522.09;;;5.00;100.00
52441;BME280;39611;46.062;8.950;2022-12-24T10:00:58;96519.75;;;5.16;100.00
52441;BME280;39611;46.062;8.950;2022-12-24T10:03:24;96521.66;;;5.20;100.00
52441;BME280;39611;46.062;8.950;2022-12-24T10:08:58;96523.09;;;5.28;100.00
52441;BME280;39611;46.062;8.950;2022-12-24T10:11:49;96524.69;;;5.29;100.00
52441;BME280;39611;46.062;8.950;2022-12-24T10:14:37;96515.31;;;5.33;100.00
52441;BME280;39611;46.062;8.950;2022-12-24T10:17:41;96524.53;;;5.36;100.00
52441;BME280;39611;46.062;8.950;2022-12-24T10:20:39;96513.00;;;5.37;100.00
52441;BME280;39611;46.062;8.950;2022-12-24T10:28:23;96504.03;;;5.50;100.00
52441;BME280;39611;46.062;8.950;2022-12-24T10:30:57;96490.97;;;5.55;100.00
52441;BME280;39611;46.062;8.950;2022-12-24T10:33:31;96499.00;;;5.65;100.00
52441;BME280;39611;46.062;8.950;2022-12-24T10:36:00;96480.63;;;5.65;100.00
52441;BME280;39611;46.062;8.950;2022-12-24T10:38:33;96488.09;;;5.73;100.00
52441;BME280;39611;46.062;8.950;2022-12-24T10:41:00;96492.41;;;5.62;100.00
52441;BME280;39611;46.062;8.950;2022-12-24T10:43:28;96482.25;;;5.66;100.00
52441;BME280;39611;46.062;8.950;2022-12-24T10:45:56;96483.47;;;5.80;100.00
52441;BME280;39611;46.062;8.950;2022-12-24T10:48:47;96482.84;;;5.73;100.00
52441;BME280;39611;46.062;8.950;2022-12-24T10:53:55;96479.63;;;5.88;100.00
52441;BME280;39611;46.062;8.950;2022-12-24T10:56:23;96469.59;;;6.02;100.00
52441;BME280;39611;46.062;8.950;2022-12-24T10:58:54;96463.38;;;6.08;100.00
52441;BME280;39611;46.062;8.950;2022-12-24T11:01:44;96452.94;;;6.13;100.00
52441;BME280;39611;46.062;8.950;2022-12-24T11:04:19;96474.63;;;6.25;100.00
52441;BME280;39611;46.062;8.950;2022-12-24T11:06:55;96482.25;;;6.27;100.00
52441;BME280;39611;46.062;8.950;2022-12-24T11:11:51;96459.53;;;6.38;100.00
52441;BME280;39611;46.062;8.950;2022-12-24T11:14:19;96448.00;;;6.39;100.00
52441;BME280;39611;46.062;8.950;2022-12-24T11:17:04;96454.88;;;6.45;100.00
52441;BME280;39611;46.062;8.950;2022-12-24T11:19:34;96454.94;;;6.50;100.00
52441;BME280;39611;46.062;8.950;2022-12-24T11:22:47;96436.59;;;6.55;100.00
52441;BME280;39611;46.062;8.950;2022-12-24T11:25:02;96438.72;;;6.58;100.00
52441;BME280;39611;46.062;8.950;2022-12-24T11:32:48;96442.50;;;6.67;100.00
52441;BME280;39611;46.062;8.950;2022-12-24T11:35:21;96454.94;;;6.77;100.00
52441;BME280;39611;46.062;8.950;2022-12-24T11:38:07;96461.28;;;6.81;100.00
52441;BME280;39611;46.062;8.950;2022-12-24T11:40:41;96465.53;;;6.87;100.00
52441;BME280;39611;46.062;8.950;2022-12-24T11:43:17;96443.81;;;6.97;100.00
52441;BME280;39611;46.062;8.950;2022-12-24T11:45:53;96438.50;;;6.92;100.00
52441;BME280;39611;46.062;8.950;2022-12-24T11:50:59;96457.00;;;7.02;100.00
52441;BME280;39611;46.062;8.950;2022-12-24T11:53:41;96455.97;;;7.03;100.00
52441;BME280;39611;46.062;8.950;2022-12-24T11:59:06;96458.09;;;7.06;100.00
52441;BME280;39611;46.062;8.950;2022-12-24T12:01:55;96466.59;;;7.18;100.00
52441;BME280;39611;46.062;8.950;2022-12-24T12:04:28;96456.34;;;7.17;100.00
52441;BME280;39611;46.062;8.950;2022-12-24T12:07:10;96458.25;;;7.27;100.00
52441;BME280;39611;46.062;8.950;2022-12-24T12:09:44;96453.78;;;7.27;100.00
52441;BME280;39611;46.062;8.950;2022-12-24T12:12:35;96445.66;;;7.34;100.00
52441;BME280;39611;46.062;8.950;2022-12-24T12:15:17;96430.13;;;7.27;100.00
52441;BME280;39611;46.062;8.950;2022-12-24T12:20:45;96440.44;;;7.39;100.00
52441;BME280;39611;46.062;8.950;2022-12-24T12:24:12;96427.06;;;7.46;100.00
52441;BME280;39611;46.062;8.950;2022-12-24T12:29:54;96420.53;;;7.53;100.00
52441;BME280;39611;46.062;8.950;2022-12-24T12:32:51;96420.53;;;7.53;100.00
52441;BME280;39611;46.062;8.950;2022-12-24T12:35:42;96423.22;;;7.58;100.00
52441;BME280;39611;46.062;8.950;2022-12-24T12:38:24;96430.63;;;7.66;100.00
52441;BME280;39611;46.062;8.950;2022-12-24T12:41:54;96424.31;;;7.73;100.00
52441;BME280;39611;46.062;8.950;2022-12-24T12:50:38;96431.50;;;7.82;100.00
52441;BME280;39611;46.062;8.950;2022-12-24T12:53:48;96433.34;;;7.82;100.00
52441;BME280;39611;46.062;8.950;2022-12-24T12:57:07;96432.66;;;8.07;100.00
52441;BME280;39611;46.062;8.950;2022-12-24T12:59:59;96422.09;;;7.97;100.00
52441;BME280;39611;46.062;8.950;2022-12-24T13:07:07;96446.25;;;7.83;100.00
52441;BME280;39611;46.062;8.950;2022-12-24T13:10:32;96464.66;;;7.78;100.00
52441;BME280;39611;46.062;8.950;2022-12-24T13:16:16;96469.13;;;7.78;100.00
52441;BME280;39611;46.062;8.950;2022-12-24T13:19:02;96472.34;;;7.90;100.00
52441;BME280;39611;46.062;8.950;2022-12-24T13:26:11;96476.09;;;7.99;100.00
52441;BME280;39611;46.062;8.950;2022-12-24T13:28:41;96468.22;;;8.04;100.00
52441;BME280;39611;46.062;8.950;2022-12-24T13:31:43;96466.56;;;7.93;100.00
52441;BME280;39611;46.062;8.950;2022-12-24T13:34:37;96456.06;;;7.98;100.00
52441;BME280;39611;46.062;8.950;2022-12-24T13:48:01;96462.59;;;7.91;100.00
52441;BME280;39611;46.062;8.950;2022-12-24T13:50:57;96474.50;;;7.98;100.00
52441;BME280;39611;46.062;8.950;2022-12-24T13:53:26;96473.19;;;8.01;100.00
52441;BME280;39611;46.062;8.950;2022-12-24T13:59:33;96472.44;;;8.05;100.00
52441;BME280;39611;46.062;8.950;2022-12-24T14:02:34;96475.06;;;8.05;100.00
52441;BME280;39611;46.062;8.950;2022-12-24T14:06:07;96468.66;;;7.91;100.00
52441;BME280;39611;46.062;8.950;2022-12-24T14:08:29;96478.97;;;7.98;100.00
52441;BME280;39611;46.062;8.950;2022-12-24T14:14:38;96471.31;;;7.96;100.00
52441;BME280;39611;46.062;8.950;2022-12-24T14:17:13;96465.50;;;7.89;100.00
52441;BME280;39611;46.062;8.950;2022-12-24T14:19:45;96456.50;;;7.80;100.00
52441;BME280;39611;46.062;8.950;2022-12-24T14:22:18;96454.16;;;7.88;100.00
52441;BME280;39611;46.062;8.950;2022-12-24T14:24:52;96463.91;;;7.88;100.00
52441;BME280;39611;46.062;8.950;2022-12-24T14:27:41;96472.81;;;7.77;100.00
52441;BME280;39611;46.062;8.950;2022-12-24T14:30:18;96469.63;;;7.75;100.00
52441;BME280;39611;46.062;8.950;2022-12-24T14:32:48;96474.88;;;7.70;100.00
52441;BME280;39611;46.062;8.950;2022-12-24T14:35:17;96481.69;;;7.65;100.00
52441;BME280;39611;46.062;8.950;2022-12-24T14:37:48;96480.41;;;7.68;100.00
52441;BME280;39611;46.062;8.950;2022-12-24T14:40:19;96480.06;;;7.59;100.00
52441;BME280;39611;46.062;8.950;2022-12-24T14:43:00;96484.31;;;7.60;100.00
52441;BME280;39611;46.062;8.950;2022-12-24T14:45:58;96494.78;;;7.55;100.00
52441;BME280;39611;46.062;8.950;2022-12-24T14:48:41;96502.38;;;7.52;100.00
52441;BME280;39611;46.062;8.950;2022-12-24T14:51:33;96522.94;;;7.55;100.00
52441;BME280;39611;46.062;8.950;2022-12-24T14:54:15;96533.94;;;7.47;100.00